Luhe — 3FVZ6 — position and weather

sailwx.info

Track history (hours):
 
Tides and Currents Weather Stations Pressure Air Temp Water Temp Dewpoint Dewpoint Depression Visibility Wind Speed Wind Dir Waves Ship Positions

Luhe

Last reported at 2014-Dec-24 03:32 UTC. Time now 2015-Jan-31 10:10 UTC.
Position N 29°47' E 122°05'.
Warning: this ship's position is 38 days out of date.

Length 280 m; draft 8 m.

Type: Cargo ship. MMSI: 354812000.

Date/timePositionNaut miles runAvg speedWind from/ knotsBaromVisibWave heightAir tempDewpointWater temp
2014-Dec-24 03:32N 29°47' E 122°05'0 0.0
2014-Dec-24 02:31N 29°47' E 122°05'1 0.6
2014-Dec-24 01:34N 29°47' E 122°05'1 0.6
2014-Dec-24 00:26N 29°48' E 122°05'0 0.1
2014-Dec-23 23:20N 29°48' E 122°05'0 0.0
2014-Dec-23 22:20N 29°48' E 122°05'0 0.0
2014-Dec-23 20:32N 29°48' E 122°05'0 0.0
2014-Dec-23 19:14N 29°48' E 122°05'0 0.3
2014-Dec-23 18:32N 29°48' E 122°05'0 0.1
2014-Dec-23 17:32N 29°48' E 122°05'0 0.0
2014-Dec-23 15:32N 29°48' E 122°05'0 0.1
2014-Dec-23 09:20N 29°48' E 122°05'0 0.0
2014-Dec-23 08:18N 29°48' E 122°05'2 2.5
2014-Dec-23 07:33N 29°48' E 122°07'8 8.4
2014-Dec-23 06:33N 29°47' E 122°16'26 8.3
2014-Dec-23 03:27N 29°55' E 122°45'1411.9
2014-Dec-23 02:18N 30°04' E 122°56'1512.8
2014-Dec-23 01:08N 30°19' E 122°59'5411.7
2014-Dec-22 20:32N 31°05' E 122°27'1313.5
2014-Dec-22 19:34N 31°09' E 122°13'1414.1
2014-Dec-22 18:33N 31°15' E 121°58'1212.0
2014-Dec-22 17:33N 31°19' E 121°44'4 3.9
2014-Dec-22 16:31N 31°20' E 121°40'0 0.0
2014-Dec-22 15:28N 31°20' E 121°40'0 0.0
2014-Dec-22 14:29N 31°20' E 121°40'0 0.0
2014-Dec-22 13:28N 31°20' E 121°40'0 0.0
2014-Dec-22 12:31N 31°20' E 121°40'0 0.0
2014-Dec-22 11:31N 31°20' E 121°40'0 0.0
2014-Dec-22 10:31N 31°20' E 121°40'0 0.0
2014-Dec-22 09:31N 31°20' E 121°40'0 0.0
2014-Dec-22 08:33N 31°20' E 121°40'0 0.0
2014-Dec-22 07:33N 31°20' E 121°40'0 0.0
2014-Dec-22 06:33N 31°20' E 121°40'0 0.0
2014-Dec-22 05:30N 31°20' E 121°40'1 1.0
2014-Dec-22 04:33N 31°20' E 121°41'9 9.4
2014-Dec-22 03:33N 31°16' E 121°51'10 9.8
2014-Dec-22 02:33N 31°14' E 122°02'1110.7
2014-Dec-22 01:33N 31°09' E 122°13'1010.5
2014-Dec-22 00:33N 31°07' E 122°25'10 9.2
2014-Dec-21 23:31N 31°07' E 122°36'2712.3
2014-Dec-21 21:20N 30°46' E 122°56'1214.7
2014-Dec-21 20:32N 30°35' E 123°01'1514.8
2014-Dec-21 19:32N 30°21' E 122°59'2814.2
2014-Dec-21 17:32N 29°55' E 122°45'1616.2
2014-Dec-21 16:33N 29°44' E 122°32'1514.5
2014-Dec-21 15:33N 29°47' E 122°16'10 9.8
2014-Dec-21 14:33N 29°55' E 122°09'6 1.1
2014-Dec-21 09:19N 29°53' E 122°03'0 0.0
2014-Dec-21 08:13N 29°53' E 122°03'0 0.0
2014-Dec-21 07:28N 29°53' E 122°03'0 0.0
2014-Dec-21 06:16N 29°53' E 122°03'0 0.0
2014-Dec-21 03:10N 29°53' E 122°03'0 0.0
2014-Dec-21 01:04N 29°53' E 122°03'0 0.0
2014-Dec-20 23:04N 29°53' E 122°03'0 0.0
2014-Dec-20 21:22N 29°53' E 122°03'0 0.0
2014-Dec-20 20:28N 29°53' E 122°03'5 5.1
2014-Dec-20 19:33N 29°56' E 122°08'1211.6
2014-Dec-20 18:33N 29°47' E 122°17'1010.2
2014-Dec-20 17:33N 29°43' E 122°27'5 3.2
2014-Dec-20 16:04N 29°39' E 122°30'0 0.1
2014-Dec-20 15:05N 29°39' E 122°30'0 0.0
2014-Dec-20 05:29N 29°39' E 122°30'0 0.0
2014-Dec-20 02:11N 29°39' E 122°30'0 0.2
2014-Dec-20 01:33N 29°39' E 122°30'8 7.8
2014-Dec-20 00:33N 29°31' E 122°28'  
Track history (hours):
 
Tides and Currents Weather Stations Pressure Air Temp Water Temp Dewpoint Dewpoint Depression Visibility Wind Speed Wind Dir Waves Ship Positions

Luhe

Last reported at 2014-Dec-24 03:32 UTC. Time now 2015-Jan-31 10:10 UTC.
Position N 29°47' E 122°05'.
Warning: this ship's position is 38 days out of date.

Length 280 m; draft 8 m.

Type: Cargo ship. MMSI: 354812000.

Date/timePositionNaut miles runAvg speedWind from/ knotsBaromVisibWave heightAir tempDewpointWater temp
2014-Dec-24 03:32N 29°47' E 122°05'0 0.0
2014-Dec-24 02:31N 29°47' E 122°05'1 0.6
2014-Dec-24 01:34N 29°47' E 122°05'1 0.6
2014-Dec-24 00:26N 29°48' E 122°05'0 0.1
2014-Dec-23 23:20N 29°48' E 122°05'0 0.0
2014-Dec-23 22:20N 29°48' E 122°05'0 0.0
2014-Dec-23 20:32N 29°48' E 122°05'0 0.0
2014-Dec-23 19:14N 29°48' E 122°05'0 0.3
2014-Dec-23 18:32N 29°48' E 122°05'0 0.1
2014-Dec-23 17:32N 29°48' E 122°05'0 0.0
2014-Dec-23 15:32N 29°48' E 122°05'0 0.1
2014-Dec-23 09:20N 29°48' E 122°05'0 0.0
2014-Dec-23 08:18N 29°48' E 122°05'2 2.5
2014-Dec-23 07:33N 29°48' E 122°07'8 8.4
2014-Dec-23 06:33N 29°47' E 122°16'26 8.3
2014-Dec-23 03:27N 29°55' E 122°45'1411.9
2014-Dec-23 02:18N 30°04' E 122°56'1512.8
2014-Dec-23 01:08N 30°19' E 122°59'5411.7
2014-Dec-22 20:32N 31°05' E 122°27'1313.5
2014-Dec-22 19:34N 31°09' E 122°13'1414.1
2014-Dec-22 18:33N 31°15' E 121°58'1212.0
2014-Dec-22 17:33N 31°19' E 121°44'4 3.9
2014-Dec-22 16:31N 31°20' E 121°40'0 0.0
2014-Dec-22 15:28N 31°20' E 121°40'0 0.0
2014-Dec-22 14:29N 31°20' E 121°40'0 0.0
2014-Dec-22 13:28N 31°20' E 121°40'0 0.0
2014-Dec-22 12:31N 31°20' E 121°40'0 0.0
2014-Dec-22 11:31N 31°20' E 121°40'0 0.0
2014-Dec-22 10:31N 31°20' E 121°40'0 0.0
2014-Dec-22 09:31N 31°20' E 121°40'0 0.0
2014-Dec-22 08:33N 31°20' E 121°40'0 0.0
2014-Dec-22 07:33N 31°20' E 121°40'0 0.0
2014-Dec-22 06:33N 31°20' E 121°40'0 0.0
2014-Dec-22 05:30N 31°20' E 121°40'1 1.0
2014-Dec-22 04:33N 31°20' E 121°41'9 9.4
2014-Dec-22 03:33N 31°16' E 121°51'10 9.8
2014-Dec-22 02:33N 31°14' E 122°02'1110.7
2014-Dec-22 01:33N 31°09' E 122°13'1010.5
2014-Dec-22 00:33N 31°07' E 122°25'10 9.2
2014-Dec-21 23:31N 31°07' E 122°36'2712.3
2014-Dec-21 21:20N 30°46' E 122°56'1214.7
2014-Dec-21 20:32N 30°35' E 123°01'1514.8
2014-Dec-21 19:32N 30°21' E 122°59'2814.2
2014-Dec-21 17:32N 29°55' E 122°45'1616.2
2014-Dec-21 16:33N 29°44' E 122°32'1514.5
2014-Dec-21 15:33N 29°47' E 122°16'10 9.8
2014-Dec-21 14:33N 29°55' E 122°09'6 1.1
2014-Dec-21 09:19N 29°53' E 122°03'0 0.0
2014-Dec-21 08:13N 29°53' E 122°03'0 0.0
2014-Dec-21 07:28N 29°53' E 122°03'0 0.0
2014-Dec-21 06:16N 29°53' E 122°03'0 0.0
2014-Dec-21 03:10N 29°53' E 122°03'0 0.0
2014-Dec-21 01:04N 29°53' E 122°03'0 0.0
2014-Dec-20 23:04N 29°53' E 122°03'0 0.0
2014-Dec-20 21:22N 29°53' E 122°03'0 0.0
2014-Dec-20 20:28N 29°53' E 122°03'5 5.1
2014-Dec-20 19:33N 29°56' E 122°08'1211.6
2014-Dec-20 18:33N 29°47' E 122°17'1010.2
2014-Dec-20 17:33N 29°43' E 122°27'5 3.2
2014-Dec-20 16:04N 29°39' E 122°30'0 0.1
2014-Dec-20 15:05N 29°39' E 122°30'0 0.0
2014-Dec-20 05:29N 29°39' E 122°30'0 0.0
2014-Dec-20 02:11N 29°39' E 122°30'0 0.2
2014-Dec-20 01:33N 29°39' E 122°30'8 7.8
2014-Dec-20 00:33N 29°31' E 122°28'  

Dump ship's entire track history